sensor_id;sensor_type;location;lat;lon;timestamp;P1;durP1;ratioP1;P2;durP2;ratioP2
42134;SDS011;28312;43.460;11.810;2023-02-24T00:03:19;9.75;;;7.85;;
42134;SDS011;28312;43.460;11.810;2023-02-24T00:07:22;11.77;;;8.27;;
42134;SDS011;28312;43.460;11.810;2023-02-24T00:11:26;8.45;;;7.00;;
42134;SDS011;28312;43.460;11.810;2023-02-24T00:15:30;8.00;;;7.20;;
42134;SDS011;28312;43.460;11.810;2023-02-24T00:19:34;7.57;;;6.78;;
42134;SDS011;28312;43.460;11.810;2023-02-24T00:23:39;9.65;;;7.68;;
42134;SDS011;28312;43.460;11.810;2023-02-24T00:27:48;8.07;;;6.82;;
42134;SDS011;28312;43.460;11.810;2023-02-24T00:31:52;6.95;;;6.25;;
42134;SDS011;28312;43.460;11.810;2023-02-24T00:36:10;8.20;;;7.40;;
42134;SDS011;28312;43.460;11.810;2023-02-24T00:40:18;10.60;;;6.97;;
42134;SDS011;28312;43.460;11.810;2023-02-24T00:44:25;7.18;;;6.35;;
42134;SDS011;28312;43.460;11.810;2023-02-24T00:48:33;8.13;;;6.25;;
42134;SDS011;28312;43.460;11.810;2023-02-24T00:52:43;8.75;;;7.65;;
42134;SDS011;28312;43.460;11.810;2023-02-24T00:56:47;9.13;;;6.15;;
42134;SDS011;28312;43.460;11.810;2023-02-24T01:00:52;11.40;;;8.23;;
42134;SDS011;28312;43.460;11.810;2023-02-24T01:05:01;10.15;;;8.50;;
42134;SDS011;28312;43.460;11.810;2023-02-24T01:09:08;10.63;;;8.60;;
42134;SDS011;28312;43.460;11.810;2023-02-24T01:13:22;9.93;;;8.38;;
42134;SDS011;28312;43.460;11.810;2023-02-24T01:17:25;10.45;;;7.57;;
42134;SDS011;28312;43.460;11.810;2023-02-24T01:21:29;10.88;;;9.23;;
42134;SDS011;28312;43.460;11.810;2023-02-24T01:25:33;10.57;;;8.43;;
42134;SDS011;28312;43.460;11.810;2023-02-24T01:29:37;9.30;;;6.50;;
42134;SDS011;28312;43.460;11.810;2023-02-24T01:33:43;11.50;;;9.05;;
42134;SDS011;28312;43.460;11.810;2023-02-24T01:37:47;9.30;;;7.78;;
42134;SDS011;28312;43.460;11.810;2023-02-24T01:41:51;8.25;;;6.75;;
42134;SDS011;28312;43.460;11.810;2023-02-24T01:45:56;10.80;;;9.15;;
42134;SDS011;28312;43.460;11.810;2023-02-24T01:49:59;10.20;;;7.95;;
42134;SDS011;28312;43.460;11.810;2023-02-24T01:54:04;11.23;;;7.72;;
42134;SDS011;28312;43.460;11.810;2023-02-24T01:58:11;9.23;;;7.85;;
42134;SDS011;28312;43.460;11.810;2023-02-24T02:02:18;10.82;;;7.80;;
42134;SDS011;28312;43.460;11.810;2023-02-24T02:06:24;8.77;;;7.18;;
42134;SDS011;28312;43.460;11.810;2023-02-24T02:10:27;9.88;;;8.85;;
42134;SDS011;28312;43.460;11.810;2023-02-24T02:14:31;8.98;;;6.65;;
42134;SDS011;28312;43.460;11.810;2023-02-24T02:18:39;17.50;;;13.68;;
42134;SDS011;28312;43.460;11.810;2023-02-24T02:36:29;8.77;;;6.93;;
42134;SDS011;28312;43.460;11.810;2023-02-24T02:40:41;11.65;;;8.60;;
42134;SDS011;28312;43.460;11.810;2023-02-24T02:49:05;18.23;;;13.07;;
42134;SDS011;28312;43.460;11.810;2023-02-24T02:53:25;16.80;;;13.95;;
42134;SDS011;28312;43.460;11.810;2023-02-24T02:57:37;16.48;;;9.48;;
42134;SDS011;28312;43.460;11.810;2023-02-24T03:01:51;17.98;;;13.82;;
42134;SDS011;28312;43.460;11.810;2023-02-24T03:06:05;18.10;;;11.77;;
42134;SDS011;28312;43.460;11.810;2023-02-24T03:10:19;10.77;;;9.25;;
42134;SDS011;28312;43.460;11.810;2023-02-24T03:14:31;12.07;;;9.88;;
42134;SDS011;28312;43.460;11.810;2023-02-24T03:18:39;12.13;;;9.05;;
42134;SDS011;28312;43.460;11.810;2023-02-24T03:22:59;11.60;;;8.60;;
42134;SDS011;28312;43.460;11.810;2023-02-24T03:31:40;11.60;;;7.40;;
42134;SDS011;28312;43.460;11.810;2023-02-24T03:35:54;8.93;;;6.88;;
42134;SDS011;28312;43.460;11.810;2023-02-24T03:40:06;14.77;;;9.88;;
42134;SDS011;28312;43.460;11.810;2023-02-24T03:44:17;19.33;;;11.50;;
42134;SDS011;28312;43.460;11.810;2023-02-24T03:48:20;25.70;;;18.63;;
42134;SDS011;28312;43.460;11.810;2023-02-24T03:52:47;37.13;;;23.95;;
42134;SDS011;28312;43.460;11.810;2023-02-24T04:18:47;7.47;;;5.97;;
42134;SDS011;28312;43.460;11.810;2023-02-24T04:22:55;13.25;;;10.98;;
42134;SDS011;28312;43.460;11.810;2023-02-24T04:27:21;19.88;;;16.17;;
42134;SDS011;28312;43.460;11.810;2023-02-24T04:31:29;14.48;;;11.48;;
42134;SDS011;28312;43.460;11.810;2023-02-24T04:35:35;22.40;;;17.25;;
42134;SDS011;28312;43.460;11.810;2023-02-24T04:39:40;19.05;;;15.38;;
42134;SDS011;28312;43.460;11.810;2023-02-24T04:43:52;19.50;;;15.98;;
42134;SDS011;28312;43.460;11.810;2023-02-24T04:47:57;15.82;;;11.90;;
42134;SDS011;28312;43.460;11.810;2023-02-24T04:52:04;21.30;;;15.05;;
42134;SDS011;28312;43.460;11.810;2023-02-24T04:56:08;15.65;;;10.80;;
42134;SDS011;28312;43.460;11.810;2023-02-24T05:00:12;20.42;;;15.90;;
42134;SDS011;28312;43.460;11.810;2023-02-24T05:04:34;34.78;;;26.17;;
42134;SDS011;28312;43.460;11.810;2023-02-24T05:08:40;40.08;;;33.50;;
42134;SDS011;28312;43.460;11.810;2023-02-24T05:12:44;25.92;;;21.35;;
42134;SDS011;28312;43.460;11.810;2023-02-24T05:16:48;36.85;;;28.15;;
42134;SDS011;28312;43.460;11.810;2023-02-24T05:20:54;20.48;;;17.77;;
42134;SDS011;28312;43.460;11.810;2023-02-24T05:25:17;21.27;;;16.70;;
42134;SDS011;28312;43.460;11.810;2023-02-24T05:29:22;26.77;;;21.65;;
42134;SDS011;28312;43.460;11.810;2023-02-24T05:33:27;26.13;;;20.77;;
42134;SDS011;28312;43.460;11.810;2023-02-24T05:37:31;17.08;;;14.10;;
42134;SDS011;28312;43.460;11.810;2023-02-24T05:41:39;14.20;;;12.60;;
42134;SDS011;28312;43.460;11.810;2023-02-24T05:45:45;13.85;;;11.32;;
42134;SDS011;28312;43.460;11.810;2023-02-24T05:49:49;19.52;;;13.25;;
42134;SDS011;28312;43.460;11.810;2023-02-24T05:53:57;14.23;;;12.05;;
42134;SDS011;28312;43.460;11.810;2023-02-24T05:58:01;16.92;;;14.45;;
42134;SDS011;28312;43.460;11.810;2023-02-24T06:02:13;19.48;;;15.73;;
42134;SDS011;28312;43.460;11.810;2023-02-24T06:06:20;34.38;;;25.77;;
42134;SDS011;28312;43.460;11.810;2023-02-24T06:10:24;28.38;;;21.73;;
42134;SDS011;28312;43.460;11.810;2023-02-24T06:14:28;23.00;;;20.40;;
42134;SDS011;28312;43.460;11.810;2023-02-24T06:18:32;14.85;;;12.55;;
42134;SDS011;28312;43.460;11.810;2023-02-24T06:22:35;23.35;;;18.58;;
42134;SDS011;28312;43.460;11.810;2023-02-24T06:26:44;35.38;;;30.15;;
42134;SDS011;28312;43.460;11.810;2023-02-24T06:30:48;20.33;;;16.77;;
42134;SDS011;28312;43.460;11.810;2023-02-24T06:34:52;23.85;;;19.70;;
42134;SDS011;28312;43.460;11.810;2023-02-24T06:38:56;16.00;;;13.60;;
42134;SDS011;28312;43.460;11.810;2023-02-24T06:42:59;16.13;;;13.43;;
42134;SDS011;28312;43.460;11.810;2023-02-24T06:47:05;14.55;;;12.18;;
42134;SDS011;28312;43.460;11.810;2023-02-24T06:51:12;12.73;;;10.50;;
42134;SDS011;28312;43.460;11.810;2023-02-24T06:55:20;16.77;;;13.77;;
42134;SDS011;28312;43.460;11.810;2023-02-24T06:59:29;13.50;;;11.82;;
42134;SDS011;28312;43.460;11.810;2023-02-24T07:03:33;14.07;;;11.63;;
42134;SDS011;28312;43.460;11.810;2023-02-24T07:07:49;13.93;;;10.82;;
42134;SDS011;28312;43.460;11.810;2023-02-24T07:11:53;14.93;;;13.32;;
42134;SDS011;28312;43.460;11.810;2023-02-24T07:15:58;15.48;;;12.50;;
42134;SDS011;28312;43.460;11.810;2023-02-24T07:20:08;10.25;;;8.93;;
42134;SDS011;28312;43.460;11.810;2023-02-24T07:24:29;12.68;;;10.23;;
42134;SDS011;28312;43.460;11.810;2023-02-24T07:28:44;9.38;;;7.95;;
42134;SDS011;28312;43.460;11.810;2023-02-24T07:32:53;9.48;;;8.50;;
42134;SDS011;28312;43.460;11.810;2023-02-24T07:36:57;14.93;;;11.23;;
42134;SDS011;28312;43.460;11.810;2023-02-24T07:41:01;13.02;;;10.02;;
42134;SDS011;28312;43.460;11.810;2023-02-24T07:45:05;12.63;;;9.50;;
42134;SDS011;28312;43.460;11.810;2023-02-24T07:49:13;8.93;;;7.60;;
42134;SDS011;28312;43.460;11.810;2023-02-24T07:53:20;6.78;;;5.75;;
42134;SDS011;28312;43.460;11.810;2023-02-24T07:57:25;9.35;;;5.78;;
42134;SDS011;28312;43.460;11.810;2023-02-24T08:01:35;6.32;;;4.13;;
42134;SDS011;28312;43.460;11.810;2023-02-24T08:05:42;9.18;;;7.32;;
42134;SDS011;28312;43.460;11.810;2023-02-24T08:09:45;9.70;;;5.95;;
42134;SDS011;28312;43.460;11.810;2023-02-24T08:14:09;9.25;;;7.13;;
42134;SDS011;28312;43.460;11.810;2023-02-24T08:18:18;9.02;;;7.18;;
42134;SDS011;28312;43.460;11.810;2023-02-24T08:22:21;6.20;;;4.75;;
42134;SDS011;28312;43.460;11.810;2023-02-24T08:26:29;8.05;;;6.93;;
42134;SDS011;28312;43.460;11.810;2023-02-24T08:30:33;5.95;;;4.70;;
42134;SDS011;28312;43.460;11.810;2023-02-24T08:34:42;7.28;;;5.32;;
42134;SDS011;28312;43.460;11.810;2023-02-24T08:38:45;8.18;;;5.38;;
42134;SDS011;28312;43.460;11.810;2023-02-24T08:42:54;11.65;;;9.40;;
42134;SDS011;28312;43.460;11.810;2023-02-24T08:47:00;9.13;;;7.53;;
42134;SDS011;28312;43.460;11.810;2023-02-24T08:51:30;9.15;;;7.63;;
42134;SDS011;28312;43.460;11.810;2023-02-24T08:55:39;13.82;;;12.35;;
42134;SDS011;28312;43.460;11.810;2023-02-24T08:59:42;9.88;;;8.45;;
42134;SDS011;28312;43.460;11.810;2023-02-24T09:03:54;7.20;;;5.65;;
42134;SDS011;28312;43.460;11.810;2023-02-24T09:07:59;8.20;;;6.20;;
42134;SDS011;28312;43.460;11.810;2023-02-24T09:12:03;7.65;;;5.43;;
42134;SDS011;28312;43.460;11.810;2023-02-24T09:16:08;8.70;;;6.72;;
42134;SDS011;28312;43.460;11.810;2023-02-24T09:20:19;15.38;;;12.82;;
42134;SDS011;28312;43.460;11.810;2023-02-24T09:24:42;15.23;;;11.95;;
42134;SDS011;28312;43.460;11.810;2023-02-24T09:28:47;22.40;;;18.70;;
42134;SDS011;28312;43.460;11.810;2023-02-24T09:32:56;18.45;;;16.45;;
42134;SDS011;28312;43.460;11.810;2023-02-24T09:37:03;21.27;;;19.15;;
42134;SDS011;28312;43.460;11.810;2023-02-24T09:41:13;15.88;;;14.13;;
42134;SDS011;28312;43.460;11.810;2023-02-24T09:45:36;21.52;;;18.15;;
42134;SDS011;28312;43.460;11.810;2023-02-24T09:50:42;23.88;;;18.30;;
42134;SDS011;28312;43.460;11.810;2023-02-24T09:54:47;9.93;;;8.68;;
42134;SDS011;28312;43.460;11.810;2023-02-24T09:59:21;12.45;;;9.60;;
42134;SDS011;28312;43.460;11.810;2023-02-24T10:03:39;21.63;;;13.47;;
42134;SDS011;28312;43.460;11.810;2023-02-24T10:07:49;14.43;;;12.95;;
42134;SDS011;28312;43.460;11.810;2023-02-24T10:11:57;11.93;;;10.70;;
42134;SDS011;28312;43.460;11.810;2023-02-24T10:16:09;16.42;;;14.25;;
42134;SDS011;28312;43.460;11.810;2023-02-24T10:20:17;11.10;;;8.40;;
42134;SDS011;28312;43.460;11.810;2023-02-24T10:24:46;10.77;;;7.65;;
42134;SDS011;28312;43.460;11.810;2023-02-24T10:33:35;12.88;;;9.75;;
42134;SDS011;28312;43.460;11.810;2023-02-24T10:37:47;10.80;;;8.95;;
42134;SDS011;28312;43.460;11.810;2023-02-24T10:41:52;14.60;;;11.50;;
42134;SDS011;28312;43.460;11.810;2023-02-24T10:46:01;16.48;;;12.32;;
42134;SDS011;28312;43.460;11.810;2023-02-24T10:50:21;17.77;;;13.57;;
42134;SDS011;28312;43.460;11.810;2023-02-24T10:54:34;13.93;;;12.02;;
42134;SDS011;28312;43.460;11.810;2023-02-24T10:59:08;10.25;;;6.85;;
42134;SDS011;28312;43.460;11.810;2023-02-24T11:03:20;10.80;;;8.68;;
42134;SDS011;28312;43.460;11.810;2023-02-24T11:16:39;7.55;;;5.93;;
42134;SDS011;28312;43.460;11.810;2023-02-24T11:21:07;11.38;;;10.15;;
42134;SDS011;28312;43.460;11.810;2023-02-24T11:25:17;9.38;;;6.85;;
42134;SDS011;28312;43.460;11.810;2023-02-24T11:29:44;47.13;;;23.15;;
42134;SDS011;28312;43.460;11.810;2023-02-24T11:34:21;23.92;;;16.83;;
42134;SDS011;28312;43.460;11.810;2023-02-24T11:38:42;13.52;;;9.55;;
42134;SDS011;28312;43.460;11.810;2023-02-24T11:42:59;17.90;;;15.90;;
42134;SDS011;28312;43.460;11.810;2023-02-24T11:47:11;10.85;;;7.60;;
42134;SDS011;28312;43.460;11.810;2023-02-24T11:51:19;11.32;;;9.30;;
42134;SDS011;28312;43.460;11.810;2023-02-24T11:59:48;9.23;;;7.63;;
42134;SDS011;28312;43.460;11.810;2023-02-24T12:08:32;9.38;;;8.35;;
42134;SDS011;28312;43.460;11.810;2023-02-24T12:12:42;12.45;;;7.93;;
42134;SDS011;28312;43.460;11.810;2023-02-24T12:16:52;8.13;;;6.60;;
42134;SDS011;28312;43.460;11.810;2023-02-24T12:25:19;13.60;;;11.57;;
42134;SDS011;28312;43.460;11.810;2023-02-24T12:42:36;9.82;;;6.53;;
42134;SDS011;28312;43.460;11.810;2023-02-24T12:46:44;8.32;;;5.60;;
42134;SDS011;28312;43.460;11.810;2023-02-24T12:55:33;5.45;;;4.68;;
42134;SDS011;28312;43.460;11.810;2023-02-24T13:00:00;10.15;;;7.25;;
42134;SDS011;28312;43.460;11.810;2023-02-24T13:08:33;5.63;;;4.47;;
42134;SDS011;28312;43.460;11.810;2023-02-24T13:12:54;6.70;;;5.20;;
42134;SDS011;28312;43.460;11.810;2023-02-24T13:21:19;9.27;;;6.70;;
42134;SDS011;28312;43.460;11.810;2023-02-24T13:25:34;10.48;;;5.50;;
42134;SDS011;28312;43.460;11.810;2023-02-24T13:29:52;7.30;;;4.88;;
42134;SDS011;28312;43.460;11.810;2023-02-24T13:33:59;8.82;;;6.78;;
42134;SDS011;28312;43.460;11.810;2023-02-24T13:38:33;8.40;;;6.15;;
42134;SDS011;28312;43.460;11.810;2023-02-24T13:42:39;9.07;;;5.53;;
42134;SDS011;28312;43.460;11.810;2023-02-24T13:46:48;10.52;;;6.78;;
42134;SDS011;28312;43.460;11.810;2023-02-24T14:04:59;8.20;;;5.90;;
42134;SDS011;28312;43.460;11.810;2023-02-24T14:09:22;8.30;;;7.13;;
42134;SDS011;28312;43.460;11.810;2023-02-24T14:13:30;7.90;;;6.25;;
42134;SDS011;28312;43.460;11.810;2023-02-24T14:17:36;7.63;;;6.32;;
42134;SDS011;28312;43.460;11.810;2023-02-24T14:21:51;6.90;;;5.82;;
42134;SDS011;28312;43.460;11.810;2023-02-24T14:26:00;8.15;;;7.28;;
42134;SDS011;28312;43.460;11.810;2023-02-24T14:30:19;7.50;;;5.95;;
42134;SDS011;28312;43.460;11.810;2023-02-24T14:34:35;8.05;;;6.40;;
42134;SDS011;28312;43.460;11.810;2023-02-24T14:38:40;7.43;;;6.18;;
42134;SDS011;28312;43.460;11.810;2023-02-24T14:42:46;8.30;;;6.55;;
42134;SDS011;28312;43.460;11.810;2023-02-24T14:46:53;9.98;;;6.30;;
42134;SDS011;28312;43.460;11.810;2023-02-24T14:51:03;8.90;;;6.63;;
42134;SDS011;28312;43.460;11.810;2023-02-24T14:55:28;6.43;;;5.70;;
42134;SDS011;28312;43.460;11.810;2023-02-24T14:59:37;9.23;;;6.40;;
42134;SDS011;28312;43.460;11.810;2023-02-24T15:03:45;6.53;;;5.45;;
42134;SDS011;28312;43.460;11.810;2023-02-24T15:07:52;10.25;;;7.13;;
42134;SDS011;28312;43.460;11.810;2023-02-24T15:11:55;7.72;;;5.78;;
42134;SDS011;28312;43.460;11.810;2023-02-24T15:16:11;5.85;;;4.93;;
42134;SDS011;28312;43.460;11.810;2023-02-24T15:24:35;6.90;;;5.15;;
42134;SDS011;28312;43.460;11.810;2023-02-24T15:28:39;7.43;;;5.65;;
42134;SDS011;28312;43.460;11.810;2023-02-24T15:32:43;7.18;;;5.20;;
42134;SDS011;28312;43.460;11.810;2023-02-24T15:36:50;6.72;;;5.20;;
42134;SDS011;28312;43.460;11.810;2023-02-24T15:40:58;8.30;;;5.03;;
42134;SDS011;28312;43.460;11.810;2023-02-24T15:45:05;5.77;;;3.97;;
42134;SDS011;28312;43.460;11.810;2023-02-24T15:49:25;5.68;;;4.40;;
42134;SDS011;28312;43.460;11.810;2023-02-24T15:53:29;5.72;;;4.50;;
42134;SDS011;28312;43.460;11.810;2023-02-24T15:57:32;7.68;;;5.47;;
42134;SDS011;28312;43.460;11.810;2023-02-24T16:01:37;7.75;;;5.78;;
42134;SDS011;28312;43.460;11.810;2023-02-24T16:05:50;7.78;;;6.07;;
42134;SDS011;28312;43.460;11.810;2023-02-24T16:10:02;9.80;;;6.68;;
42134;SDS011;28312;43.460;11.810;2023-02-24T16:14:08;7.22;;;5.38;;
42134;SDS011;28312;43.460;11.810;2023-02-24T16:18:24;10.43;;;7.20;;
42134;SDS011;28312;43.460;11.810;2023-02-24T16:22:31;7.30;;;6.13;;
42134;SDS011;28312;43.460;11.810;2023-02-24T16:26:36;8.63;;;7.72;;
42134;SDS011;28312;43.460;11.810;2023-02-24T16:30:41;8.68;;;5.82;;
42134;SDS011;28312;43.460;11.810;2023-02-24T16:34:46;8.48;;;6.40;;
42134;SDS011;28312;43.460;11.810;2023-02-24T16:38:50;9.43;;;6.70;;
42134;SDS011;28312;43.460;11.810;2023-02-24T16:42:55;11.02;;;8.57;;
42134;SDS011;28312;43.460;11.810;2023-02-24T16:46:59;10.00;;;7.13;;
42134;SDS011;28312;43.460;11.810;2023-02-24T16:51:04;8.57;;;7.57;;
42134;SDS011;28312;43.460;11.810;2023-02-24T16:55:12;8.43;;;5.63;;
42134;SDS011;28312;43.460;11.810;2023-02-24T16:59:17;9.13;;;7.55;;
42134;SDS011;28312;43.460;11.810;2023-02-24T17:07:26;7.35;;;5.97;;
42134;SDS011;28312;43.460;11.810;2023-02-24T17:11:29;10.30;;;8.48;;
42134;SDS011;28312;43.460;11.810;2023-02-24T17:15:38;10.02;;;7.90;;
42134;SDS011;28312;43.460;11.810;2023-02-24T17:19:42;9.07;;;5.88;;
42134;SDS011;28312;43.460;11.810;2023-02-24T17:23:45;7.88;;;5.88;;
42134;SDS011;28312;43.460;11.810;2023-02-24T17:27:49;7.20;;;5.60;;
42134;SDS011;28312;43.460;11.810;2023-02-24T17:31:54;8.73;;;7.68;;
42134;SDS011;28312;43.460;11.810;2023-02-24T17:35:59;11.02;;;6.30;;
42134;SDS011;28312;43.460;11.810;2023-02-24T17:40:03;13.65;;;11.05;;
42134;SDS011;28312;43.460;11.810;2023-02-24T17:44:08;10.20;;;7.47;;
42134;SDS011;28312;43.460;11.810;2023-02-24T17:48:13;12.63;;;10.15;;
42134;SDS011;28312;43.460;11.810;2023-02-24T17:52:17;12.77;;;11.15;;
42134;SDS011;28312;43.460;11.810;2023-02-24T17:56:21;15.27;;;12.43;;
42134;SDS011;28312;43.460;11.810;2023-02-24T18:00:25;12.40;;;9.85;;
42134;SDS011;28312;43.460;11.810;2023-02-24T18:04:29;13.43;;;9.70;;
42134;SDS011;28312;43.460;11.810;2023-02-24T18:08:34;13.95;;;11.18;;
42134;SDS011;28312;43.460;11.810;2023-02-24T18:12:43;17.00;;;11.50;;
42134;SDS011;28312;43.460;11.810;2023-02-24T18:16:46;16.40;;;11.38;;
42134;SDS011;28312;43.460;11.810;2023-02-24T18:20:50;11.35;;;8.65;;
42134;SDS011;28312;43.460;11.810;2023-02-24T18:24:57;14.55;;;11.13;;
42134;SDS011;28312;43.460;11.810;2023-02-24T18:29:05;18.42;;;13.38;;
42134;SDS011;28312;43.460;11.810;2023-02-24T18:33:10;10.65;;;9.23;;
42134;SDS011;28312;43.460;11.810;2023-02-24T18:37:14;10.05;;;7.72;;
42134;SDS011;28312;43.460;11.810;2023-02-24T18:41:19;10.60;;;9.25;;
42134;SDS011;28312;43.460;11.810;2023-02-24T18:45:25;9.40;;;7.30;;
42134;SDS011;28312;43.460;11.810;2023-02-24T18:49:31;10.38;;;9.25;;
42134;SDS011;28312;43.460;11.810;2023-02-24T18:53:37;11.18;;;8.73;;
42134;SDS011;28312;43.460;11.810;2023-02-24T18:57:42;13.90;;;11.13;;
42134;SDS011;28312;43.460;11.810;2023-02-24T19:01:47;15.88;;;11.85;;
42134;SDS011;28312;43.460;11.810;2023-02-24T19:05:53;12.63;;;9.93;;
42134;SDS011;28312;43.460;11.810;2023-02-24T19:09:58;18.73;;;14.40;;
42134;SDS011;28312;43.460;11.810;2023-02-24T19:14:02;11.77;;;8.50;;
42134;SDS011;28312;43.460;11.810;2023-02-24T19:18:08;19.10;;;16.75;;
42134;SDS011;28312;43.460;11.810;2023-02-24T19:22:12;12.80;;;10.88;;
42134;SDS011;28312;43.460;11.810;2023-02-24T19:26:19;12.07;;;9.65;;
42134;SDS011;28312;43.460;11.810;2023-02-24T19:30:30;10.90;;;8.65;;
42134;SDS011;28312;43.460;11.810;2023-02-24T19:34:35;16.45;;;13.73;;
42134;SDS011;28312;43.460;11.810;2023-02-24T19:38:42;14.52;;;11.85;;
42134;SDS011;28312;43.460;11.810;2023-02-24T19:42:48;15.05;;;12.30;;
42134;SDS011;28312;43.460;11.810;2023-02-24T19:46:53;21.85;;;16.58;;
42134;SDS011;28312;43.460;11.810;2023-02-24T19:50:59;17.60;;;13.10;;
42134;SDS011;28312;43.460;11.810;2023-02-24T19:55:10;15.65;;;11.55;;
42134;SDS011;28312;43.460;11.810;2023-02-24T19:59:16;20.47;;;16.33;;
42134;SDS011;28312;43.460;11.810;2023-02-24T20:03:21;17.92;;;13.02;;
42134;SDS011;28312;43.460;11.810;2023-02-24T20:07:34;17.60;;;14.75;;
42134;SDS011;28312;43.460;11.810;2023-02-24T20:11:40;15.52;;;12.23;;
42134;SDS011;28312;43.460;11.810;2023-02-24T20:15:47;17.45;;;14.50;;
42134;SDS011;28312;43.460;11.810;2023-02-24T20:19:50;15.60;;;12.68;;
42134;SDS011;28312;43.460;11.810;2023-02-24T20:23:57;23.20;;;18.85;;
42134;SDS011;28312;43.460;11.810;2023-02-24T20:28:06;27.30;;;24.23;;
42134;SDS011;28312;43.460;11.810;2023-02-24T20:32:10;33.67;;;29.00;;
42134;SDS011;28312;43.460;11.810;2023-02-24T20:36:16;21.70;;;16.45;;
42134;SDS011;28312;43.460;11.810;2023-02-24T20:40:23;14.40;;;10.48;;
42134;SDS011;28312;43.460;11.810;2023-02-24T20:44:27;15.95;;;12.82;;
42134;SDS011;28312;43.460;11.810;2023-02-24T20:48:31;20.27;;;16.52;;
42134;SDS011;28312;43.460;11.810;2023-02-24T20:52:34;16.15;;;13.20;;
42134;SDS011;28312;43.460;11.810;2023-02-24T20:56:41;17.55;;;13.40;;
42134;SDS011;28312;43.460;11.810;2023-02-24T21:00:45;13.85;;;11.00;;
42134;SDS011;28312;43.460;11.810;2023-02-24T21:04:49;8.40;;;6.40;;
42134;SDS011;28312;43.460;11.810;2023-02-24T21:08:52;17.10;;;15.18;;
42134;SDS011;28312;43.460;11.810;2023-02-24T21:12:57;12.95;;;9.50;;
42134;SDS011;28312;43.460;11.810;2023-02-24T21:17:02;16.77;;;13.90;;
42134;SDS011;28312;43.460;11.810;2023-02-24T21:21:06;21.00;;;16.40;;
42134;SDS011;28312;43.460;11.810;2023-02-24T21:25:11;17.00;;;13.35;;
42134;SDS011;28312;43.460;11.810;2023-02-24T21:29:14;17.60;;;14.90;;
42134;SDS011;28312;43.460;11.810;2023-02-24T21:33:18;16.13;;;14.35;;
42134;SDS011;28312;43.460;11.810;2023-02-24T21:37:21;16.77;;;14.98;;
42134;SDS011;28312;43.460;11.810;2023-02-24T21:41:25;16.20;;;14.07;;
42134;SDS011;28312;43.460;11.810;2023-02-24T21:45:28;15.30;;;12.98;;
42134;SDS011;28312;43.460;11.810;2023-02-24T21:49:32;17.98;;;13.20;;
42134;SDS011;28312;43.460;11.810;2023-02-24T21:53:36;17.73;;;14.70;;
42134;SDS011;28312;43.460;11.810;2023-02-24T21:57:41;19.15;;;16.20;;
42134;SDS011;28312;43.460;11.810;2023-02-24T22:01:49;20.85;;;16.05;;
42134;SDS011;28312;43.460;11.810;2023-02-24T22:05:53;17.02;;;15.00;;
42134;SDS011;28312;43.460;11.810;2023-02-24T22:09:56;15.98;;;12.95;;
42134;SDS011;28312;43.460;11.810;2023-02-24T22:14:00;17.25;;;15.40;;
42134;SDS011;28312;43.460;11.810;2023-02-24T22:18:08;15.98;;;14.25;;
42134;SDS011;28312;43.460;11.810;2023-02-24T22:22:12;18.30;;;13.63;;
42134;SDS011;28312;43.460;11.810;2023-02-24T22:26:16;19.30;;;15.85;;
42134;SDS011;28312;43.460;11.810;2023-02-24T22:30:20;16.35;;;14.52;;
42134;SDS011;28312;43.460;11.810;2023-02-24T22:34:24;14.45;;;11.60;;
42134;SDS011;28312;43.460;11.810;2023-02-24T22:38:33;13.88;;;11.32;;
42134;SDS011;28312;43.460;11.810;2023-02-24T22:42:37;14.75;;;13.18;;
42134;SDS011;28312;43.460;11.810;2023-02-24T22:46:40;15.38;;;12.88;;
42134;SDS011;28312;43.460;11.810;2023-02-24T22:50:44;15.50;;;12.82;;
42134;SDS011;28312;43.460;11.810;2023-02-24T22:54:47;21.98;;;19.63;;
42134;SDS011;28312;43.460;11.810;2023-02-24T23:02:58;14.05;;;12.57;;
42134;SDS011;28312;43.460;11.810;2023-02-24T23:07:04;20.58;;;14.13;;
42134;SDS011;28312;43.460;11.810;2023-02-24T23:11:13;15.95;;;12.90;;
42134;SDS011;28312;43.460;11.810;2023-02-24T23:15:20;18.10;;;16.17;;
42134;SDS011;28312;43.460;11.810;2023-02-24T23:19:24;20.48;;;18.27;;
42134;SDS011;28312;43.460;11.810;2023-02-24T23:23:28;17.15;;;11.38;;
42134;SDS011;28312;43.460;11.810;2023-02-24T23:27:35;14.05;;;11.98;;
42134;SDS011;28312;43.460;11.810;2023-02-24T23:31:42;19.23;;;14.82;;
42134;SDS011;28312;43.460;11.810;2023-02-24T23:35:46;23.02;;;16.88;;
42134;SDS011;28312;43.460;11.810;2023-02-24T23:39:49;22.48;;;18.25;;
42134;SDS011;28312;43.460;11.810;2023-02-24T23:43:53;23.67;;;18.75;;
42134;SDS011;28312;43.460;11.810;2023-02-24T23:47:57;15.25;;;11.43;;
42134;SDS011;28312;43.460;11.810;2023-02-24T23:52:00;18.45;;;14.75;;
42134;SDS011;28312;43.460;11.810;2023-02-24T23:56:09;17.02;;;15.23;;
